Time;durP1;ratioP1;P1;durP2;ratioP2;P2;SDS_P1;SDS_P2;PMS_P1;PMS_P2;Temp;Humidity;BMP_temperature;BMP_pressure;BME280_temperature;BME280_humidity;BME280_pressure;Samples;Min_cycle;Max_cycle;Signal;HPM_P1;HPM_P2
2022/03/17 00:01:01;;;;;;;23.92;10.57;;;;;;;;;;5095767;28;20046;-44
2022/03/17 00:03:27;;;;;;;20.17;8.90;;;;;;;;;;5093300;28;20046;-42
2022/03/17 00:05:52;;;;;;;20.65;11.43;;;;;;;;;;5094915;28;20036;-42
2022/03/17 00:08:18;;;;;;;28.55;11.02;;;;;;;;;;5096214;28;20486;-40
2022/03/17 00:10:44;;;;;;;26.23;10.45;;;;;;;;;;5095403;28;20509;-41
2022/03/17 00:13:09;;;;;;;22.27;10.27;;;;;;;;;;5094903;28;20058;-42
2022/03/17 00:15:35;;;;;;;25.13;8.98;;;;;;;;;;5098004;28;20059;-41
2022/03/17 00:18:00;;;;;;;26.65;8.38;;;;;;;;;;5097179;28;20112;-41
2022/03/17 00:20:25;;;;;;;18.27;11.77;;;;;;;;;;5097511;28;20054;-42
2022/03/17 00:22:51;;;;;;;29.85;10.32;;;;;;;;;;5094765;28;20126;-43
2022/03/17 00:25:17;;;;;;;11.40;7.05;;;;;;;;;;5092525;28;20457;-42
2022/03/17 00:27:43;;;;;;;14.77;7.93;;;;;;;;;;5093424;28;20509;-42
2022/03/17 00:30:08;;;;;;;20.80;8.68;;;;;;;;;;5094860;28;20537;-43
2022/03/17 00:32:34;;;;;;;34.78;10.27;;;;;;;;;;5092600;28;20061;-40
2022/03/17 00:37:43;;;;;;;17.35;8.85;;;;;;;;;;5094737;28;20055;-40
2022/03/17 00:40:09;;;;;;;19.20;9.30;;;;;;;;;;5095657;28;20058;-43
2022/03/17 00:42:34;;;;;;;37.40;10.75;;;;;;;;;;5095660;28;20044;-41
2022/03/17 00:45:00;;;;;;;21.05;10.98;;;;;;;;;;5092103;28;20958;-40
2022/03/17 00:47:25;;;;;;;24.98;10.82;;;;;;;;;;5093788;28;20036;-42
2022/03/17 00:49:50;;;;;;;17.50;8.50;;;;;;;;;;5093811;28;20135;-40
2022/03/17 00:52:19;;;;;;;29.63;7.80;;;;;;;;;;5092874;28;20105;-41
2022/03/17 00:54:44;;;;;;;21.77;10.07;;;;;;;;;;5090372;28;20047;-43
2022/03/17 00:57:09;;;;;;;20.40;7.80;;;;;;;;;;5094630;28;20396;-43
2022/03/17 00:59:38;;;;;;;10.38;7.40;;;;;;;;;;5089791;28;20048;-40
2022/03/17 01:02:04;;;;;;;24.52;10.57;;;;;;;;;;5094113;28;20111;-42
2022/03/17 01:04:29;;;;;;;16.20;6.40;;;;;;;;;;5096433;28;20079;-44
2022/03/17 01:06:55;;;;;;;21.90;5.85;;;;;;;;;;5094090;28;20050;-42
2022/03/17 01:09:20;;;;;;;8.35;5.45;;;;;;;;;;5093610;28;20049;-41
2022/03/17 01:11:46;;;;;;;10.40;3.95;;;;;;;;;;5094515;28;20610;-43
2022/03/17 01:14:13;;;;;;;16.02;8.73;;;;;;;;;;5092505;28;20044;-44
2022/03/17 01:16:39;;;;;;;29.63;8.60;;;;;;;;;;5095817;28;20052;-45
2022/03/17 01:19:04;;;;;;;13.88;6.80;;;;;;;;;;5093471;28;20109;-42
2022/03/17 01:21:29;;;;;;;35.03;10.10;;;;;;;;;;5092968;28;20062;-44
2022/03/17 01:23:55;;;;;;;29.83;8.65;;;;;;;;;;5094927;28;20043;-45
2022/03/17 01:26:20;;;;;;;17.05;6.50;;;;;;;;;;5096779;28;20039;-48
2022/03/17 01:28:45;;;;;;;17.60;7.57;;;;;;;;;;5095611;28;20490;-41
2022/03/17 01:31:11;;;;;;;13.25;6.63;;;;;;;;;;5093008;28;20562;-42
2022/03/17 01:33:36;;;;;;;16.60;7.80;;;;;;;;;;5098615;28;20105;-41
2022/03/17 01:36:01;;;;;;;34.28;11.07;;;;;;;;;;5100789;28;20479;-42
2022/03/17 01:38:27;;;;;;;19.08;8.48;;;;;;;;;;5095732;28;20040;-41
2022/03/17 01:40:52;;;;;;;18.80;9.13;;;;;;;;;;5097610;28;20499;-41
2022/03/17 01:43:20;;;;;;;29.55;8.55;;;;;;;;;;5097868;28;20040;-41
2022/03/17 01:45:46;;;;;;;20.60;9.45;;;;;;;;;;5099001;27;20055;-45
2022/03/17 01:48:11;;;;;;;13.27;7.18;;;;;;;;;;5098774;28;20059;-41
2022/03/17 01:50:36;;;;;;;29.45;9.32;;;;;;;;;;5097047;28;20047;-42
2022/03/17 01:53:02;;;;;;;15.70;6.35;;;;;;;;;;5096689;28;20047;-43
2022/03/17 01:55:27;;;;;;;15.43;8.30;;;;;;;;;;5095606;28;20068;-42
2022/03/17 01:57:52;;;;;;;12.90;6.47;;;;;;;;;;5094279;28;20044;-41
2022/03/17 02:00:18;;;;;;;21.27;7.80;;;;;;;;;;5094850;28;20122;-40
2022/03/17 02:02:45;;;;;;;12.88;6.78;;;;;;;;;;5097162;28;20048;-43
2022/03/17 02:05:11;;;;;;;15.32;6.65;;;;;;;;;;5094512;28;20035;-40
2022/03/17 02:07:36;;;;;;;17.88;6.38;;;;;;;;;;5097082;28;20487;-41
2022/03/17 02:10:03;;;;;;;22.17;7.78;;;;;;;;;;5094360;28;20571;-41
2022/03/17 02:15:12;;;;;;;18.10;6.80;;;;;;;;;;5096383;28;20202;-41
2022/03/17 02:17:41;;;;;;;22.63;9.50;;;;;;;;;;5097162;28;20135;-40
2022/03/17 02:20:10;;;;;;;24.58;8.45;;;;;;;;;;5098770;28;20051;-40
2022/03/17 02:22:40;;;;;;;13.68;7.38;;;;;;;;;;5094943;28;20089;-41
2022/03/17 02:27:49;;;;;;;20.52;9.38;;;;;;;;;;5094535;28;20051;-43
2022/03/17 02:30:16;;;;;;;20.50;7.32;;;;;;;;;;5097803;28;20044;-40
2022/03/17 02:32:41;;;;;;;37.60;10.45;;;;;;;;;;5095926;28;20047;-41
2022/03/17 02:35:09;;;;;;;15.80;9.13;;;;;;;;;;5097414;28;20052;-41
2022/03/17 02:37:34;;;;;;;19.92;8.13;;;;;;;;;;5096685;28;20070;-43
2022/03/17 02:40:00;;;;;;;24.80;8.95;;;;;;;;;;5096828;28;20055;-42
2022/03/17 02:42:30;;;;;;;10.98;7.75;;;;;;;;;;5099152;27;20039;-42
2022/03/17 02:44:55;;;;;;;21.67;7.15;;;;;;;;;;5099846;28;20491;-44
2022/03/17 02:47:21;;;;;;;20.42;7.32;;;;;;;;;;5098815;28;20057;-43
2022/03/17 02:49:47;;;;;;;25.40;9.45;;;;;;;;;;5098877;28;20055;-44
2022/03/17 02:52:12;;;;;;;19.83;10.85;;;;;;;;;;5097240;28;20119;-40
2022/03/17 02:54:38;;;;;;;31.42;12.18;;;;;;;;;;5097365;28;20419;-43
2022/03/17 02:57:05;;;;;;;22.38;9.93;;;;;;;;;;5092602;28;20132;-41
2022/03/17 02:59:31;;;;;;;21.17;8.65;;;;;;;;;;5097642;28;20051;-41
2022/03/17 03:01:56;;;;;;;28.55;8.48;;;;;;;;;;5094655;28;20047;-43
2022/03/17 03:04:21;;;;;;;26.20;12.50;;;;;;;;;;5094584;27;20044;-45
2022/03/17 03:06:47;;;;;;;25.85;10.93;;;;;;;;;;5094193;28;20053;-41
2022/03/17 03:09:13;;;;;;;30.85;13.60;;;;;;;;;;5094105;28;20104;-45
2022/03/17 03:11:38;;;;;;;24.63;9.70;;;;;;;;;;5093671;28;20150;-41
2022/03/17 03:14:06;;;;;;;20.70;8.13;;;;;;;;;;5095635;28;20066;-40
2022/03/17 03:16:31;;;;;;;21.75;9.02;;;;;;;;;;5093754;28;20048;-40
2022/03/17 03:18:56;;;;;;;20.73;7.05;;;;;;;;;;5094822;28;20100;-40
2022/03/17 03:21:22;;;;;;;27.02;9.93;;;;;;;;;;5096191;28;20116;-42
2022/03/17 03:23:47;;;;;;;26.05;9.43;;;;;;;;;;5093987;28;20506;-43
2022/03/17 03:26:12;;;;;;;19.08;9.73;;;;;;;;;;5094502;27;20052;-41
2022/03/17 03:28:39;;;;;;;23.13;8.98;;;;;;;;;;5093412;28;20040;-40
2022/03/17 03:31:04;;;;;;;17.05;8.43;;;;;;;;;;5096656;28;20047;-41
2022/03/17 03:33:29;;;;;;;12.93;6.93;;;;;;;;;;5093040;28;20036;-40
2022/03/17 03:38:39;;;;;;;21.92;5.25;;;;;;;;;;5093812;28;20119;-40
2022/03/17 03:41:04;;;;;;;18.83;7.07;;;;;;;;;;5093361;28;20044;-43
2022/03/17 03:43:32;;;;;;;27.00;9.50;;;;;;;;;;5097761;28;20040;-42
2022/03/17 03:45:58;;;;;;;24.17;4.80;;;;;;;;;;5091532;28;20094;-40
2022/03/17 03:48:23;;;;;;;11.98;5.03;;;;;;;;;;5094932;28;20144;-41
2022/03/17 03:50:48;;;;;;;11.15;5.57;;;;;;;;;;5094399;28;20067;-40
2022/03/17 03:53:13;;;;;;;19.92;5.97;;;;;;;;;;5093679;28;20070;-44
2022/03/17 03:55:39;;;;;;;15.57;6.63;;;;;;;;;;5092701;28;20666;-45
2022/03/17 03:58:04;;;;;;;16.48;5.47;;;;;;;;;;5093281;28;20159;-42
2022/03/17 04:02:55;;;;;;;9.15;4.80;;;;;;;;;;5095878;28;20028;-45
2022/03/17 04:05:24;;;;;;;17.63;4.68;;;;;;;;;;5092260;28;20071;-43
2022/03/17 04:07:51;;;;;;;15.20;4.75;;;;;;;;;;5092272;28;20502;-40
2022/03/17 04:10:16;;;;;;;11.68;4.30;;;;;;;;;;5093427;28;20108;-44
2022/03/17 04:12:41;;;;;;;9.13;4.93;;;;;;;;;;5095063;27;20054;-40
2022/03/17 04:15:07;;;;;;;12.43;5.15;;;;;;;;;;5094657;28;20043;-46
2022/03/17 04:17:32;;;;;;;13.93;4.72;;;;;;;;;;5092350;28;20441;-46
2022/03/17 04:19:57;;;;;;;8.13;3.78;;;;;;;;;;5095333;28;20040;-43
2022/03/17 04:22:23;;;;;;;14.38;4.32;;;;;;;;;;5097304;28;20509;-43
2022/03/17 04:24:49;;;;;;;16.15;3.67;;;;;;;;;;5094568;28;20039;-42
2022/03/17 04:27:14;;;;;;;12.23;4.88;;;;;;;;;;5095447;28;20126;-40
2022/03/17 04:29:40;;;;;;;4.82;2.70;;;;;;;;;;5093712;28;20099;-40
2022/03/17 04:32:06;;;;;;;18.95;4.82;;;;;;;;;;5092669;28;20048;-40
2022/03/17 04:34:31;;;;;;;21.58;3.60;;;;;;;;;;5093527;28;20044;-43
2022/03/17 04:36:56;;;;;;;7.85;3.47;;;;;;;;;;5091184;28;20043;-43
2022/03/17 04:39:22;;;;;;;10.45;4.53;;;;;;;;;;5094611;28;20059;-43
2022/03/17 04:41:48;;;;;;;13.48;5.25;;;;;;;;;;5096449;28;20040;-45
2022/03/17 04:44:13;;;;;;;4.80;3.78;;;;;;;;;;5090990;28;20056;-40
2022/03/17 04:46:40;;;;;;;26.70;5.38;;;;;;;;;;5092356;28;20106;-42
2022/03/17 04:49:06;;;;;;;17.38;5.30;;;;;;;;;;5094233;28;20047;-41
2022/03/17 04:51:31;;;;;;;13.30;6.20;;;;;;;;;;5093747;28;20040;-41
2022/03/17 04:53:57;;;;;;;11.25;3.33;;;;;;;;;;5094346;28;20766;-42
2022/03/17 04:56:23;;;;;;;13.90;4.28;;;;;;;;;;5092162;28;20043;-39
2022/03/17 04:58:48;;;;;;;9.15;4.05;;;;;;;;;;5094219;28;20051;-41
2022/03/17 05:01:14;;;;;;;20.35;3.75;;;;;;;;;;5091902;28;20066;-40
2022/03/17 05:03:40;;;;;;;5.82;3.45;;;;;;;;;;5091804;28;20411;-42
2022/03/17 05:06:05;;;;;;;3.75;2.60;;;;;;;;;;5095854;28;20043;-43
2022/03/17 05:08:35;;;;;;;11.18;3.30;;;;;;;;;;5101296;28;20681;-41
2022/03/17 05:11:00;;;;;;;4.15;3.28;;;;;;;;;;5097315;28;20075;-41
2022/03/17 05:13:26;;;;;;;13.68;3.63;;;;;;;;;;5101129;28;20502;-43
2022/03/17 05:15:51;;;;;;;15.88;3.10;;;;;;;;;;5099306;28;20522;-41
2022/03/17 05:18:17;;;;;;;19.40;3.80;;;;;;;;;;5101919;28;20067;-42
2022/03/17 05:20:43;;;;;;;6.00;2.15;;;;;;;;;;5100398;28;20620;-40
2022/03/17 05:23:09;;;;;;;12.25;2.95;;;;;;;;;;5100902;28;20521;-40
2022/03/17 05:25:35;;;;;;;7.13;3.35;;;;;;;;;;5099019;28;20044;-46
2022/03/17 05:28:01;;;;;;;7.30;3.40;;;;;;;;;;5099888;28;20051;-40
2022/03/17 05:30:27;;;;;;;18.20;3.40;;;;;;;;;;5099700;28;20036;-40
2022/03/17 05:32:52;;;;;;;12.20;2.28;;;;;;;;;;5103475;28;20492;-40
2022/03/17 05:35:18;;;;;;;6.63;3.40;;;;;;;;;;5098921;28;20056;-41
2022/03/17 05:37:43;;;;;;;3.15;1.35;;;;;;;;;;5101689;28;20135;-41
2022/03/17 05:40:16;;;;;;;4.65;2.53;;;;;;;;;;5102064;28;20810;-42
2022/03/17 05:42:42;;;;;;;10.88;3.28;;;;;;;;;;5097121;28;20040;-44
2022/03/17 05:45:08;;;;;;;6.40;2.35;;;;;;;;;;5096751;28;20044;-42
2022/03/17 05:47:36;;;;;;;5.80;2.40;;;;;;;;;;5098990;27;20701;-41
2022/03/17 05:50:02;;;;;;;10.35;2.08;;;;;;;;;;5099707;28;20050;-42
2022/03/17 05:52:27;;;;;;;12.75;4.25;;;;;;;;;;5101307;28;20038;-45
2022/03/17 05:54:53;;;;;;;17.60;4.30;;;;;;;;;;5098488;28;20416;-42
2022/03/17 05:57:19;;;;;;;5.57;2.58;;;;;;;;;;5098339;28;20056;-41
2022/03/17 05:59:44;;;;;;;8.07;2.22;;;;;;;;;;5099417;28;20039;-41
2022/03/17 06:02:09;;;;;;;8.15;3.50;;;;;;;;;;5098909;28;20491;-42
2022/03/17 06:04:35;;;;;;;8.60;3.53;;;;;;;;;;5100043;28;20696;-42
2022/03/17 06:07:00;;;;;;;15.05;3.22;;;;;;;;;;5101719;28;20031;-39
2022/03/17 06:09:25;;;;;;;11.98;3.20;;;;;;;;;;5101687;28;20396;-40
2022/03/17 06:11:51;;;;;;;11.85;3.70;;;;;;;;;;5101470;28;20407;-40
2022/03/17 06:14:17;;;;;;;9.90;2.67;;;;;;;;;;5101641;28;20080;-40
2022/03/17 06:16:42;;;;;;;12.63;4.80;;;;;;;;;;5098217;28;20257;-42
2022/03/17 06:19:08;;;;;;;14.80;3.83;;;;;;;;;;5094443;28;20049;-50
2022/03/17 06:21:33;;;;;;;9.43;4.03;;;;;;;;;;5096775;28;20059;-49
2022/03/17 06:23:59;;;;;;;16.10;4.78;;;;;;;;;;5096695;28;20040;-46
2022/03/17 06:26:24;;;;;;;4.20;2.60;;;;;;;;;;5091609;28;20056;-44
2022/03/17 06:28:49;;;;;;;12.75;3.83;;;;;;;;;;5094758;28;20677;-45
2022/03/17 06:31:15;;;;;;;7.38;3.15;;;;;;;;;;5097354;28;20044;-42
2022/03/17 06:33:40;;;;;;;4.43;2.75;;;;;;;;;;5094553;28;20075;-45
2022/03/17 06:36:06;;;;;;;15.20;4.35;;;;;;;;;;5094467;28;20055;-44
2022/03/17 06:38:31;;;;;;;11.98;3.53;;;;;;;;;;5096152;28;20055;-47
2022/03/17 06:40:56;;;;;;;9.05;3.17;;;;;;;;;;5094155;28;20047;-46
2022/03/17 06:43:22;;;;;;;11.20;3.25;;;;;;;;;;5096813;28;20039;-43
2022/03/17 06:45:47;;;;;;;8.10;3.50;;;;;;;;;;5095255;28;20482;-45
2022/03/17 06:48:12;;;;;;;9.07;3.45;;;;;;;;;;5094082;28;20044;-44
2022/03/17 06:50:37;;;;;;;7.90;3.33;;;;;;;;;;5095536;28;20044;-44
2022/03/17 06:53:03;;;;;;;3.72;2.33;;;;;;;;;;5094861;28;20051;-46
2022/03/17 06:55:31;;;;;;;8.45;4.78;;;;;;;;;;5095896;28;20200;-47
2022/03/17 06:57:56;;;;;;;8.10;3.72;;;;;;;;;;5093913;28;20052;-44
2022/03/17 07:00:21;;;;;;;4.53;3.67;;;;;;;;;;5094197;28;20044;-47
2022/03/17 07:02:47;;;;;;;8.68;3.70;;;;;;;;;;5094120;28;20762;-45
2022/03/17 07:05:13;;;;;;;10.32;3.63;;;;;;;;;;5093524;28;20624;-45
2022/03/17 07:07:38;;;;;;;12.85;5.30;;;;;;;;;;5091782;28;20914;-47
2022/03/17 07:10:08;;;;;;;17.67;5.38;;;;;;;;;;5094661;28;20116;-44
2022/03/17 07:12:34;;;;;;;15.43;5.00;;;;;;;;;;5093337;28;20052;-47
2022/03/17 07:14:59;;;;;;;7.53;5.22;;;;;;;;;;5092730;28;20048;-45
2022/03/17 07:17:26;;;;;;;13.20;6.18;;;;;;;;;;5092153;28;20125;-45
2022/03/17 07:22:26;;;;;;;7.03;3.58;;;;;;;;;;5098685;28;20603;-44
2022/03/17 07:24:51;;;;;;;7.47;3.70;;;;;;;;;;5093981;28;20589;-47
2022/03/17 07:27:17;;;;;;;6.82;3.63;;;;;;;;;;5093291;28;20046;-43
2022/03/17 07:29:42;;;;;;;8.43;3.63;;;;;;;;;;5094062;28;20056;-45
2022/03/17 07:32:09;;;;;;;10.60;4.15;;;;;;;;;;5093363;28;20543;-45
2022/03/17 07:34:35;;;;;;;14.57;4.68;;;;;;;;;;5095192;28;20065;-44
2022/03/17 07:37:00;;;;;;;5.90;2.80;;;;;;;;;;5093078;28;20080;-43
2022/03/17 07:39:25;;;;;;;3.70;2.83;;;;;;;;;;5096232;28;20052;-46
2022/03/17 07:41:51;;;;;;;5.90;2.90;;;;;;;;;;5091232;28;20044;-46
2022/03/17 07:44:16;;;;;;;7.78;4.28;;;;;;;;;;5097015;28;20612;-42
2022/03/17 07:46:42;;;;;;;5.25;3.40;;;;;;;;;;5097163;28;20035;-47
2022/03/17 07:49:08;;;;;;;8.52;4.00;;;;;;;;;;5092620;28;20124;-45
2022/03/17 07:51:33;;;;;;;15.00;3.75;;;;;;;;;;5095948;28;20048;-45
2022/03/17 07:53:58;;;;;;;12.30;4.90;;;;;;;;;;5095510;28;20544;-46
2022/03/17 07:56:24;;;;;;;10.98;4.28;;;;;;;;;;5095590;27;20555;-47
2022/03/17 07:58:49;;;;;;;11.43;4.05;;;;;;;;;;5094298;28;20051;-46
2022/03/17 08:01:16;;;;;;;9.48;4.82;;;;;;;;;;5094740;28;20755;-45
2022/03/17 08:03:41;;;;;;;12.98;4.43;;;;;;;;;;5092626;28;20052;-44
2022/03/17 08:06:06;;;;;;;33.80;4.43;;;;;;;;;;5093461;28;20117;-44
2022/03/17 08:08:34;;;;;;;15.73;5.32;;;;;;;;;;5093736;28;20092;-48
2022/03/17 08:10:59;;;;;;;14.82;5.63;;;;;;;;;;5094117;28;20062;-45
2022/03/17 08:13:25;;;;;;;10.27;5.35;;;;;;;;;;5096070;28;20044;-46
2022/03/17 08:15:51;;;;;;;11.50;5.03;;;;;;;;;;5094113;28;20419;-43
2022/03/17 08:18:16;;;;;;;8.95;3.60;;;;;;;;;;5094160;28;20082;-44
2022/03/17 08:20:42;;;;;;;9.23;3.60;;;;;;;;;;5093818;28;20055;-43
2022/03/17 08:23:07;;;;;;;13.93;5.60;;;;;;;;;;5093047;28;20077;-48
2022/03/17 08:25:33;;;;;;;9.63;6.15;;;;;;;;;;5092990;28;20047;-42
2022/03/17 08:28:02;;;;;;;13.00;4.63;;;;;;;;;;5097348;28;20047;-44
2022/03/17 08:30:27;;;;;;;5.30;3.22;;;;;;;;;;5090934;28;20173;-45
2022/03/17 08:32:52;;;;;;;20.90;7.40;;;;;;;;;;5093634;28;20143;-48
2022/03/17 08:35:18;;;;;;;13.80;4.28;;;;;;;;;;5094170;28;20047;-43
2022/03/17 08:37:45;;;;;;;24.38;6.55;;;;;;;;;;5090770;28;20079;-47
2022/03/17 08:40:11;;;;;;;14.05;4.90;;;;;;;;;;5093943;28;20044;-50
2022/03/17 08:42:37;;;;;;;14.38;6.53;;;;;;;;;;5090512;28;20032;-45
2022/03/17 08:49:18;;;;;;;9.75;5.32;;;;;;;;;;5093522;28;20043;-45
2022/03/17 08:50:32;;;;;;;10.80;5.50;;;;;;;;;;5092251;28;20571;-45
2022/03/17 08:52:58;;;;;;;11.52;5.30;;;;;;;;;;5092914;28;20048;-44
2022/03/17 08:55:23;;;;;;;16.55;8.07;;;;;;;;;;5092617;28;20040;-43
2022/03/17 08:57:49;;;;;;;14.75;7.78;;;;;;;;;;5093213;28;20074;-44
2022/03/17 09:00:14;;;;;;;25.08;5.95;;;;;;;;;;5092897;28;20557;-47
2022/03/17 09:02:40;;;;;;;15.40;8.00;;;;;;;;;;5096120;28;20116;-49
2022/03/17 09:05:06;;;;;;;9.02;4.65;;;;;;;;;;5093745;28;20071;-47
2022/03/17 09:07:31;;;;;;;19.33;7.07;;;;;;;;;;5092687;28;20405;-44
2022/03/17 09:09:56;;;;;;;14.27;6.47;;;;;;;;;;5092490;28;20100;-48
2022/03/17 09:12:22;;;;;;;22.95;7.15;;;;;;;;;;5092093;28;20052;-48
2022/03/17 09:14:47;;;;;;;17.70;6.88;;;;;;;;;;5094446;28;20044;-50
2022/03/17 09:17:13;;;;;;;16.35;3.78;;;;;;;;;;5093141;28;20441;-47
2022/03/17 09:19:38;;;;;;;17.13;6.25;;;;;;;;;;5094927;28;20525;-44
2022/03/17 09:22:04;;;;;;;25.02;6.05;;;;;;;;;;5092762;28;20043;-47
2022/03/17 09:24:30;;;;;;;12.73;5.55;;;;;;;;;;5090842;28;20371;-47
2022/03/17 09:26:56;;;;;;;14.82;5.63;;;;;;;;;;5092905;28;20112;-48
2022/03/17 09:29:21;;;;;;;15.50;5.22;;;;;;;;;;5093403;28;20113;-49
2022/03/17 09:31:48;;;;;;;17.15;6.05;;;;;;;;;;5090190;28;20530;-45
2022/03/17 09:34:13;;;;;;;12.95;6.07;;;;;;;;;;5092571;28;20035;-47
2022/03/17 09:36:39;;;;;;;11.10;5.88;;;;;;;;;;5092499;28;20130;-47
2022/03/17 09:41:48;;;;;;;12.00;4.90;;;;;;;;;;5090861;28;20074;-45
2022/03/17 09:44:14;;;;;;;23.17;6.70;;;;;;;;;;5093668;28;20036;-46
2022/03/17 09:46:41;;;;;;;20.98;5.68;;;;;;;;;;5095764;28;20048;-46
2022/03/17 09:49:06;;;;;;;16.48;4.63;;;;;;;;;;5091683;28;20056;-45
2022/03/17 09:51:33;;;;;;;13.68;4.55;;;;;;;;;;5093048;28;20056;-44
2022/03/17 09:54:00;;;;;;;8.70;4.03;;;;;;;;;;5096499;28;20082;-42
2022/03/17 09:56:26;;;;;;;11.35;4.97;;;;;;;;;;5096120;28;20183;-46
2022/03/17 09:58:53;;;;;;;26.70;5.13;;;;;;;;;;5096176;28;20086;-46
2022/03/17 10:01:19;;;;;;;21.05;7.63;;;;;;;;;;5097276;28;20503;-47
2022/03/17 10:03:45;;;;;;;39.97;6.75;;;;;;;;;;5095431;28;20044;-42
2022/03/17 10:06:10;;;;;;;11.82;5.57;;;;;;;;;;5098238;28;20383;-44
2022/03/17 10:08:38;;;;;;;10.75;5.80;;;;;;;;;;5096747;28;20043;-47
2022/03/17 10:11:03;;;;;;;18.33;3.92;;;;;;;;;;5097579;28;20078;-45
2022/03/17 10:13:29;;;;;;;15.25;6.28;;;;;;;;;;5097803;28;20153;-45
2022/03/17 10:16:05;;;;;;;9.95;6.35;;;;;;;;;;5099427;28;20082;-45
2022/03/17 10:18:30;;;;;;;13.02;6.78;;;;;;;;;;5093670;28;20048;-45
2022/03/17 10:21:12;;;;;;;12.43;4.22;;;;;;;;;;5093382;28;20046;-44
2022/03/17 10:23:45;;;;;;;13.90;5.15;;;;;;;;;;5097582;28;20032;-47
2022/03/17 10:26:11;;;;;;;13.70;6.38;;;;;;;;;;5098609;28;20091;-47
2022/03/17 10:28:38;;;;;;;14.40;4.97;;;;;;;;;;5098840;28;20502;-48
2022/03/17 10:31:04;;;;;;;22.52;4.72;;;;;;;;;;5097908;27;20509;-51
2022/03/17 10:33:29;;;;;;;12.95;5.20;;;;;;;;;;5098440;28;20043;-49
2022/03/17 10:36:11;;;;;;;10.30;5.07;;;;;;;;;;5097329;28;20047;-44
2022/03/17 10:38:42;;;;;;;6.85;3.60;;;;;;;;;;5100405;28;20075;-46
2022/03/17 10:41:11;;;;;;;13.35;3.33;;;;;;;;;;5098010;28;20119;-46
2022/03/17 10:43:38;;;;;;;3.20;2.53;;;;;;;;;;5094350;28;20191;-47
2022/03/17 10:46:16;;;;;;;10.73;5.28;;;;;;;;;;5097713;28;20058;-50
2022/03/17 10:49:00;;;;;;;14.60;6.95;;;;;;;;;;5100040;28;20052;-46
2022/03/17 10:51:31;;;;;;;17.23;5.90;;;;;;;;;;5096541;28;20609;-46
2022/03/17 10:54:03;;;;;;;4.70;4.10;;;;;;;;;;5097649;28;20051;-50
2022/03/17 10:56:28;;;;;;;10.40;4.78;;;;;;;;;;5097728;28;20047;-49
2022/03/17 10:58:54;;;;;;;11.82;4.72;;;;;;;;;;5099068;28;20539;-54
2022/03/17 11:01:33;;;;;;;8.70;5.10;;;;;;;;;;5097294;28;20039;-54
2022/03/17 11:03:59;;;;;;;39.97;5.93;;;;;;;;;;5093492;28;20092;-52
2022/03/17 11:06:24;;;;;;;14.50;5.03;;;;;;;;;;5096479;28;20478;-54
2022/03/17 11:08:50;;;;;;;19.13;4.20;;;;;;;;;;5100055;28;20073;-53
2022/03/17 11:11:15;;;;;;;14.20;5.82;;;;;;;;;;5097601;28;20085;-48
2022/03/17 11:13:42;;;;;;;6.90;3.83;;;;;;;;;;5093583;28;20503;-51
2022/03/17 11:16:08;;;;;;;21.83;5.05;;;;;;;;;;5096664;28;20051;-54
2022/03/17 11:18:35;;;;;;;15.35;5.93;;;;;;;;;;5096461;28;20529;-52
2022/03/17 11:21:13;;;;;;;12.85;6.00;;;;;;;;;;5097542;28;20043;-48
2022/03/17 11:23:55;;;;;;;17.48;5.75;;;;;;;;;;5096446;28;20680;-53
2022/03/17 11:26:22;;;;;;;24.10;13.45;;;;;;;;;;5098687;28;20047;-53
2022/03/17 11:28:48;;;;;;;14.02;8.23;;;;;;;;;;5101043;28;20035;-54
2022/03/17 11:31:17;;;;;;;27.23;13.05;;;;;;;;;;5097137;28;20058;-51
2022/03/17 11:33:43;;;;;;;11.75;6.07;;;;;;;;;;5095780;28;20054;-53
2022/03/17 11:36:08;;;;;;;26.17;13.70;;;;;;;;;;5111420;27;20055;-53
2022/03/17 11:38:37;;;;;;;28.90;19.30;;;;;;;;;;5096510;28;20078;-53
2022/03/17 11:41:16;;;;;;;17.08;9.55;;;;;;;;;;5095276;28;20040;-49
2022/03/17 11:43:47;;;;;;;18.25;7.95;;;;;;;;;;5095498;28;20083;-50
2022/03/17 11:46:13;;;;;;;22.50;5.75;;;;;;;;;;5096641;28;20031;-52
2022/03/17 11:48:39;;;;;;;31.15;17.30;;;;;;;;;;5095499;28;20104;-50
2022/03/17 11:51:06;;;;;;;22.83;15.90;;;;;;;;;;5098429;28;20637;-49
2022/03/17 11:53:37;;;;;;;31.98;9.98;;;;;;;;;;5095824;28;20734;-46
2022/03/17 11:56:03;;;;;;;35.38;11.05;;;;;;;;;;5094009;28;20052;-50
2022/03/17 11:58:33;;;;;;;32.50;10.35;;;;;;;;;;5092462;28;20043;-49
2022/03/17 12:01:03;;;;;;;24.48;6.68;;;;;;;;;;5094699;28;20035;-50
2022/03/17 12:03:32;;;;;;;15.07;6.55;;;;;;;;;;5095116;28;20081;-45
2022/03/17 12:06:09;;;;;;;14.65;8.50;;;;;;;;;;5092477;28;20062;-46
2022/03/17 12:08:46;;;;;;;25.52;8.27;;;;;;;;;;5095000;28;20130;-47
2022/03/17 12:11:13;;;;;;;22.98;9.80;;;;;;;;;;5095035;28;20502;-53
2022/03/17 12:13:39;;;;;;;20.45;10.07;;;;;;;;;;5095106;28;20305;-48
2022/03/17 12:16:05;;;;;;;29.92;11.98;;;;;;;;;;5092493;28;20043;-49
2022/03/17 12:18:50;;;;;;;29.20;12.68;;;;;;;;;;5092681;28;20144;-53
2022/03/17 12:21:15;;;;;;;25.13;8.82;;;;;;;;;;5096269;28;20036;-48
2022/03/17 12:23:49;;;;;;;33.13;10.05;;;;;;;;;;5096259;28;20722;-49
2022/03/17 12:26:18;;;;;;;24.35;10.52;;;;;;;;;;5094027;28;20220;-46
2022/03/17 12:28:44;;;;;;;41.97;14.82;;;;;;;;;;5096916;28;20069;-49
2022/03/17 12:31:09;;;;;;;30.00;9.88;;;;;;;;;;5095497;28;20048;-47
2022/03/17 12:33:36;;;;;;;16.58;7.97;;;;;;;;;;5097005;28;20054;-52
2022/03/17 12:36:05;;;;;;;37.30;21.33;;;;;;;;;;5095680;28;20043;-50
2022/03/17 12:38:32;;;;;;;21.50;8.73;;;;;;;;;;5096105;28;20043;-50
2022/03/17 12:40:58;;;;;;;13.30;7.90;;;;;;;;;;5094872;28;20048;-48
2022/03/17 12:43:23;;;;;;;44.33;9.68;;;;;;;;;;5096757;28;20502;-48
2022/03/17 12:45:49;;;;;;;24.20;11.65;;;;;;;;;;5092322;28;20055;-48
2022/03/17 12:48:16;;;;;;;46.70;12.43;;;;;;;;;;5096631;28;20499;-47
2022/03/17 12:50:41;;;;;;;18.30;9.88;;;;;;;;;;5096608;28;20047;-50
2022/03/17 12:53:08;;;;;;;41.97;12.48;;;;;;;;;;5094315;28;20044;-46
2022/03/17 12:55:34;;;;;;;16.83;6.47;;;;;;;;;;5096456;28;20044;-51
2022/03/17 12:58:02;;;;;;;35.88;12.27;;;;;;;;;;5097498;28;20092;-50
2022/03/17 13:00:27;;;;;;;11.55;7.32;;;;;;;;;;5093572;28;20055;-50
2022/03/17 13:02:54;;;;;;;25.45;9.52;;;;;;;;;;5094678;28;20058;-49
2022/03/17 13:08:04;;;;;;;15.75;5.95;;;;;;;;;;5093497;28;20059;-48
2022/03/17 13:14:20;;;;;;;12.57;3.70;;;;;;;;;;5092430;28;20655;-50
2022/03/17 13:15:59;;;;;;;38.25;13.65;;;;;;;;;;5095868;28;20158;-49
2022/03/17 13:18:24;;;;;;;27.50;7.95;;;;;;;;;;5094643;28;20135;-50
2022/03/17 13:20:58;;;;;;;18.42;8.68;;;;;;;;;;5094734;28;20560;-50
2022/03/17 13:23:33;;;;;;;18.38;7.75;;;;;;;;;;5095800;28;20036;-51
2022/03/17 13:25:59;;;;;;;10.80;4.75;;;;;;;;;;5097137;28;20127;-51
2022/03/17 13:28:25;;;;;;;20.80;6.85;;;;;;;;;;5100538;28;20522;-48
2022/03/17 13:30:52;;;;;;;23.23;6.22;;;;;;;;;;5105201;28;20051;-48
2022/03/17 13:33:24;;;;;;;35.15;11.15;;;;;;;;;;5099870;28;20531;-49
2022/03/17 13:35:49;;;;;;;24.98;7.72;;;;;;;;;;5099247;28;20055;-50
2022/03/17 13:38:18;;;;;;;36.42;14.15;;;;;;;;;;5099491;28;20051;-51
2022/03/17 13:40:44;;;;;;;24.95;7.80;;;;;;;;;;5100247;28;20130;-47
2022/03/17 13:43:10;;;;;;;14.48;5.38;;;;;;;;;;5097379;28;20494;-47
2022/03/17 13:45:36;;;;;;;10.18;6.05;;;;;;;;;;5096884;28;20071;-49
2022/03/17 13:48:19;;;;;;;13.65;6.97;;;;;;;;;;5101456;28;20130;-47
2022/03/17 13:51:00;;;;;;;30.63;7.72;;;;;;;;;;5097655;28;20070;-50
2022/03/17 13:53:32;;;;;;;18.10;7.90;;;;;;;;;;5096793;28;20104;-46
2022/03/17 13:56:00;;;;;;;18.80;6.10;;;;;;;;;;5098432;28;21081;-51
2022/03/17 13:58:31;;;;;;;14.57;4.72;;;;;;;;;;5098136;28;20058;-51
2022/03/17 14:00:56;;;;;;;;;;;;;;;;;;5098966;28;20532;-50
2022/03/17 14:03:22;;;;;;;15.23;6.23;;;;;;;;;;5097147;28;19912;-49
2022/03/17 14:05:58;;;;;;;18.20;6.20;;;;;;;;;;5095593;28;20273;-47
2022/03/17 14:08:23;;;;;;;32.15;5.97;;;;;;;;;;5097060;28;20046;-48
2022/03/17 14:10:49;;;;;;;16.05;4.30;;;;;;;;;;5098323;28;20134;-49
2022/03/17 14:13:14;;;;;;;11.98;5.65;;;;;;;;;;5099056;28;20088;-51
2022/03/17 14:15:39;;;;;;;12.43;6.78;;;;;;;;;;5097363;28;20188;-51
2022/03/17 14:18:06;;;;;;;16.15;6.47;;;;;;;;;;5096325;28;20051;-47
2022/03/17 14:20:32;;;;;;;18.77;4.28;;;;;;;;;;5096558;28;20027;-49
2022/03/17 14:25:41;;;;;;;45.85;8.20;;;;;;;;;;5095614;28;20097;-48
2022/03/17 14:28:06;;;;;;;20.45;8.65;;;;;;;;;;5098567;28;20044;-52
2022/03/17 14:30:31;;;;;;;13.82;6.57;;;;;;;;;;5097924;28;20097;-51
2022/03/17 14:32:56;;;;;;;17.23;9.50;;;;;;;;;;5097466;28;20066;-50
2022/03/17 14:35:22;;;;;;;6.53;3.47;;;;;;;;;;5098942;28;20096;-52
2022/03/17 14:37:47;;;;;;;25.48;8.75;;;;;;;;;;5100352;28;20454;-49
2022/03/17 14:40:12;;;;;;;21.67;7.00;;;;;;;;;;5098947;28;20125;-53
2022/03/17 14:42:38;;;;;;;22.50;8.98;;;;;;;;;;5096956;28;20561;-51
2022/03/17 14:45:06;;;;;;;11.93;5.43;;;;;;;;;;5097144;28;20030;-48
2022/03/17 14:47:33;;;;;;;17.20;8.32;;;;;;;;;;5100800;28;20056;-53
2022/03/17 14:50:00;;;;;;;7.90;3.50;;;;;;;;;;5098766;27;20078;-52
2022/03/17 14:52:25;;;;;;;11.48;5.82;;;;;;;;;;5099238;28;20047;-48
2022/03/17 14:54:50;;;;;;;11.73;5.20;;;;;;;;;;5099119;28;20524;-48
2022/03/17 14:57:16;;;;;;;10.63;2.67;;;;;;;;;;5099616;28;20048;-46